Time;durP1;ratioP1;P1;durP2;ratioP2;P2;SDS_P1;SDS_P2;PMS_P1;PMS_P2;Temp;Humidity;BMP_temperature;BMP_pressure;BME280_temperature;BME280_humidity;BME280_pressure;Samples;Min_cycle;Max_cycle;Signal;HPM_P1;HPM_P2
2021/10/15 00:00:25;;;;;;;7.25;5.70;;;;;;;;;;5065401;28;20074;-57
2021/10/15 00:02:51;;;;;;;8.80;7.85;;;;;;;;;;5076287;28;20477;-58
2021/10/15 00:05:16;;;;;;;9.52;8.15;;;;;;;;;;5068808;28;20432;-57
2021/10/15 00:07:41;;;;;;;9.57;8.57;;;;;;;;;;5066470;28;20545;-57
2021/10/15 00:10:07;;;;;;;10.55;7.88;;;;;;;;;;5067950;28;20047;-58
2021/10/15 00:12:33;;;;;;;9.40;7.50;;;;;;;;;;5067642;28;20023;-57
2021/10/15 00:14:58;;;;;;;9.07;7.28;;;;;;;;;;5071322;28;20021;-54
2021/10/15 00:17:23;;;;;;;10.80;8.63;;;;;;;;;;5070324;28;20029;-58
2021/10/15 00:19:48;;;;;;;11.25;8.43;;;;;;;;;;5062475;28;20150;-56
2021/10/15 00:22:13;;;;;;;11.10;8.38;;;;;;;;;;5067394;28;20020;-58
2021/10/15 00:24:39;;;;;;;9.23;8.18;;;;;;;;;;5068345;28;20404;-57
2021/10/15 00:27:04;;;;;;;10.48;9.07;;;;;;;;;;5069422;28;20078;-58
2021/10/15 00:29:29;;;;;;;9.48;7.63;;;;;;;;;;5071681;28;20036;-57
2021/10/15 00:31:54;;;;;;;8.60;7.72;;;;;;;;;;5073887;28;20455;-58
2021/10/15 00:34:20;;;;;;;10.98;9.23;;;;;;;;;;5072293;28;20025;-59
2021/10/15 00:36:45;;;;;;;10.32;9.27;;;;;;;;;;5070495;28;20129;-59
2021/10/15 00:39:10;;;;;;;12.45;10.60;;;;;;;;;;5064842;28;20056;-58
2021/10/15 00:41:35;;;;;;;9.40;7.63;;;;;;;;;;5073910;28;20020;-57
2021/10/15 00:44:02;;;;;;;10.57;9.52;;;;;;;;;;5072463;28;20380;-58
2021/10/15 00:46:27;;;;;;;10.20;7.22;;;;;;;;;;5072836;28;20078;-58
2021/10/15 00:48:52;;;;;;;11.55;10.05;;;;;;;;;;5071901;28;20016;-58
2021/10/15 00:51:18;;;;;;;12.23;10.88;;;;;;;;;;5072299;28;20437;-59
2021/10/15 00:53:43;;;;;;;12.40;10.85;;;;;;;;;;5072761;28;20052;-58
2021/10/15 00:56:08;;;;;;;12.73;9.63;;;;;;;;;;5067696;28;20153;-57
2021/10/15 00:58:34;;;;;;;11.38;10.27;;;;;;;;;;5073495;28;20032;-58
2021/10/15 01:00:59;;;;;;;12.05;9.98;;;;;;;;;;5069005;28;20032;-57
2021/10/15 01:03:24;;;;;;;10.00;9.00;;;;;;;;;;5072791;28;20040;-57
2021/10/15 01:05:49;;;;;;;11.93;9.95;;;;;;;;;;5071413;28;20047;-56
2021/10/15 01:08:14;;;;;;;13.60;11.85;;;;;;;;;;5053666;28;20401;-57
2021/10/15 01:10:40;;;;;;;12.10;10.48;;;;;;;;;;5070476;28;20052;-58
2021/10/15 01:13:05;;;;;;;11.48;10.27;;;;;;;;;;5069105;28;20515;-58
2021/10/15 01:15:30;;;;;;;13.05;11.60;;;;;;;;;;5072826;28;20024;-58
2021/10/15 01:17:55;;;;;;;11.73;10.48;;;;;;;;;;5072022;28;20037;-57
2021/10/15 01:20:20;;;;;;;11.63;10.10;;;;;;;;;;5069756;28;20035;-58
2021/10/15 01:22:45;;;;;;;13.85;10.75;;;;;;;;;;5053507;28;20152;-58
2021/10/15 01:25:11;;;;;;;13.00;11.52;;;;;;;;;;5064039;28;20378;-55
2021/10/15 01:27:36;;;;;;;15.65;11.43;;;;;;;;;;5069075;28;20025;-59
2021/10/15 01:30:01;;;;;;;12.57;11.27;;;;;;;;;;5072458;28;20492;-58
2021/10/15 01:32:26;;;;;;;12.13;10.60;;;;;;;;;;5069999;28;20078;-58
2021/10/15 01:34:51;;;;;;;12.95;11.63;;;;;;;;;;5072399;28;20035;-58
2021/10/15 01:37:17;;;;;;;14.85;11.27;;;;;;;;;;5071774;28;20298;-58
2021/10/15 01:39:42;;;;;;;12.18;10.50;;;;;;;;;;5071727;28;20028;-57
2021/10/15 01:42:53;;;;;;;14.88;11.95;;;;;;;;;;5070049;28;20028;-59
2021/10/15 01:44:52;;;;;;;12.95;11.07;;;;;;;;;;5068954;28;20071;-58
2021/10/15 01:47:18;;;;;;;13.00;11.55;;;;;;;;;;5071075;28;20036;-58
2021/10/15 01:49:43;;;;;;;12.73;11.18;;;;;;;;;;5072068;28;20036;-57
2021/10/15 01:52:08;;;;;;;13.70;10.93;;;;;;;;;;5068237;28;20075;-55
2021/10/15 01:54:33;;;;;;;12.23;10.63;;;;;;;;;;5070469;28;20067;-58
2021/10/15 01:56:58;;;;;;;12.02;10.20;;;;;;;;;;5068495;28;20020;-59
2021/10/15 01:59:24;;;;;;;11.27;9.63;;;;;;;;;;5069816;28;20024;-58
2021/10/15 02:01:49;;;;;;;11.23;10.02;;;;;;;;;;5068968;28;20475;-58
2021/10/15 02:04:14;;;;;;;11.98;10.55;;;;;;;;;;5069369;28;20086;-56
2021/10/15 02:06:39;;;;;;;10.93;9.85;;;;;;;;;;5071180;28;20032;-57
2021/10/15 02:09:05;;;;;;;10.32;9.38;;;;;;;;;;5069207;28;20033;-58
2021/10/15 02:11:30;;;;;;;11.77;9.77;;;;;;;;;;5069284;28;20024;-58
2021/10/15 02:13:56;;;;;;;11.65;10.45;;;;;;;;;;5072457;28;20028;-58
2021/10/15 02:16:21;;;;;;;11.68;10.68;;;;;;;;;;5070828;28;20134;-54
2021/10/15 02:18:46;;;;;;;10.82;9.73;;;;;;;;;;5071715;28;20033;-57
2021/10/15 02:21:11;;;;;;;10.20;9.18;;;;;;;;;;5070281;28;20024;-55
2021/10/15 02:23:36;;;;;;;11.20;9.05;;;;;;;;;;5070118;28;20040;-57
2021/10/15 02:26:02;;;;;;;9.75;8.38;;;;;;;;;;5065510;28;20040;-56
2021/10/15 02:28:27;;;;;;;9.10;8.20;;;;;;;;;;5071521;28;20032;-58
2021/10/15 02:30:52;;;;;;;9.30;8.40;;;;;;;;;;5068316;28;20016;-57
2021/10/15 02:33:17;;;;;;;8.70;7.55;;;;;;;;;;5070332;28;20257;-58
2021/10/15 02:35:43;;;;;;;9.40;7.82;;;;;;;;;;5069256;28;20465;-57
2021/10/15 02:38:08;;;;;;;10.77;8.93;;;;;;;;;;5059323;28;20048;-57
2021/10/15 02:40:33;;;;;;;11.57;8.73;;;;;;;;;;5065421;28;20485;-58
2021/10/15 02:42:58;;;;;;;8.88;8.02;;;;;;;;;;5069849;28;20028;-58
2021/10/15 02:45:23;;;;;;;10.48;8.30;;;;;;;;;;5070102;28;20025;-57
2021/10/15 02:47:49;;;;;;;9.57;8.57;;;;;;;;;;5058675;28;20028;-60
2021/10/15 02:50:14;;;;;;;7.90;6.78;;;;;;;;;;5068230;28;20385;-57
2021/10/15 02:52:39;;;;;;;8.23;7.38;;;;;;;;;;5070044;28;20020;-59
2021/10/15 02:55:05;;;;;;;9.27;7.78;;;;;;;;;;5068926;28;20043;-59
2021/10/15 02:57:30;;;;;;;9.50;7.68;;;;;;;;;;5065959;28;20500;-58
2021/10/15 02:59:55;;;;;;;8.20;7.50;;;;;;;;;;5065200;28;20016;-59
2021/10/15 03:02:20;;;;;;;7.63;6.82;;;;;;;;;;5070329;28;20032;-58
2021/10/15 03:04:46;;;;;;;8.13;7.38;;;;;;;;;;5069775;28;20060;-57
2021/10/15 03:07:11;;;;;;;8.13;6.78;;;;;;;;;;5071560;28;20035;-54
2021/10/15 03:09:36;;;;;;;9.30;7.03;;;;;;;;;;5065179;28;20040;-58
2021/10/15 03:12:01;;;;;;;6.80;6.10;;;;;;;;;;5070130;28;20441;-58
2021/10/15 03:14:27;;;;;;;8.38;5.88;;;;;;;;;;5069514;28;20491;-59
2021/10/15 03:16:52;;;;;;;7.43;6.72;;;;;;;;;;5065174;28;20063;-58
2021/10/15 03:19:17;;;;;;;8.13;6.78;;;;;;;;;;5070381;28;20051;-58
2021/10/15 03:21:43;;;;;;;6.75;6.03;;;;;;;;;;5070646;28;20056;-58
2021/10/15 03:24:08;;;;;;;7.10;6.40;;;;;;;;;;5070913;28;20056;-59
2021/10/15 03:26:33;;;;;;;8.50;7.13;;;;;;;;;;5068612;28;20494;-59
2021/10/15 03:28:58;;;;;;;7.30;6.60;;;;;;;;;;5071238;28;20043;-56
2021/10/15 03:31:24;;;;;;;7.78;6.97;;;;;;;;;;5069068;28;20032;-58
2021/10/15 03:33:50;;;;;;;8.13;7.38;;;;;;;;;;5069513;28;20017;-58
2021/10/15 03:36:15;;;;;;;7.40;6.70;;;;;;;;;;5070568;28;20523;-58
2021/10/15 03:38:40;;;;;;;7.78;7.07;;;;;;;;;;5070164;28;20590;-58
2021/10/15 03:41:05;;;;;;;8.50;7.57;;;;;;;;;;5067717;28;20393;-58
2021/10/15 03:43:30;;;;;;;9.90;8.13;;;;;;;;;;5062624;28;20041;-58
2021/10/15 03:45:55;;;;;;;8.70;7.65;;;;;;;;;;5064797;28;20077;-58
2021/10/15 03:48:21;;;;;;;10.27;9.30;;;;;;;;;;5070147;28;20044;-57
2021/10/15 03:50:46;;;;;;;9.00;7.88;;;;;;;;;;5067462;28;20017;-58
2021/10/15 03:53:11;;;;;;;10.43;9.35;;;;;;;;;;5069391;28;20037;-56
2021/10/15 03:55:36;;;;;;;10.57;9.63;;;;;;;;;;5065801;28;20025;-58
2021/10/15 03:58:01;;;;;;;10.57;9.48;;;;;;;;;;5069283;28;20166;-57
2021/10/15 04:00:27;;;;;;;10.95;9.77;;;;;;;;;;5065353;28;20353;-58
2021/10/15 04:02:52;;;;;;;9.45;8.55;;;;;;;;;;5070361;28;20028;-58
2021/10/15 04:05:17;;;;;;;10.15;9.10;;;;;;;;;;5069053;28;20047;-58
2021/10/15 04:07:43;;;;;;;11.05;9.90;;;;;;;;;;5068340;28;20054;-57
2021/10/15 04:10:09;;;;;;;11.35;10.30;;;;;;;;;;5068801;28;20024;-58
2021/10/15 04:12:34;;;;;;;12.13;10.82;;;;;;;;;;5074462;28;20037;-58
2021/10/15 04:15:00;;;;;;;12.00;10.88;;;;;;;;;;5074147;28;20039;-57
2021/10/15 04:17:25;;;;;;;12.13;10.43;;;;;;;;;;5071843;28;20451;-57
2021/10/15 04:19:50;;;;;;;12.55;11.05;;;;;;;;;;5073299;28;20039;-55
2021/10/15 04:22:16;;;;;;;13.23;12.02;;;;;;;;;;5073662;28;20071;-58
2021/10/15 04:24:41;;;;;;;10.80;9.70;;;;;;;;;;5068649;28;20066;-53
2021/10/15 04:27:07;;;;;;;12.93;11.63;;;;;;;;;;5068006;28;20032;-58
2021/10/15 04:29:32;;;;;;;15.75;13.02;;;;;;;;;;5070337;28;20552;-56
2021/10/15 04:31:58;;;;;;;14.93;13.35;;;;;;;;;;5069758;28;20017;-58
2021/10/15 04:34:23;;;;;;;13.57;12.18;;;;;;;;;;5071860;28;20043;-57
2021/10/15 04:36:49;;;;;;;14.15;12.65;;;;;;;;;;5062645;28;20366;-58
2021/10/15 04:39:14;;;;;;;14.32;12.80;;;;;;;;;;5072336;28;20028;-58
2021/10/15 04:41:39;;;;;;;15.02;13.55;;;;;;;;;;5072290;28;20077;-58
2021/10/15 04:44:04;;;;;;;15.30;13.15;;;;;;;;;;5071573;28;20035;-57
2021/10/15 04:46:30;;;;;;;15.55;12.80;;;;;;;;;;5065584;28;20040;-58
2021/10/15 04:48:55;;;;;;;14.32;12.82;;;;;;;;;;5066355;28;20020;-57
2021/10/15 04:51:20;;;;;;;15.27;13.68;;;;;;;;;;5071525;28;20156;-59
2021/10/15 04:53:45;;;;;;;14.70;13.20;;;;;;;;;;5073844;28;20050;-59
2021/10/15 04:56:11;;;;;;;13.43;11.82;;;;;;;;;;5070103;28;20021;-58
2021/10/15 04:58:36;;;;;;;12.38;10.90;;;;;;;;;;5070630;28;20059;-57
2021/10/15 05:01:01;;;;;;;14.15;12.10;;;;;;;;;;5064272;28;20031;-60
2021/10/15 05:03:26;;;;;;;14.27;11.13;;;;;;;;;;5065221;28;20032;-59
2021/10/15 05:05:51;;;;;;;11.02;9.98;;;;;;;;;;5072663;28;20017;-57
2021/10/15 05:08:17;;;;;;;7.18;6.15;;;;;;;;;;5072384;28;20028;-58
2021/10/15 05:10:44;;;;;;;10.45;9.30;;;;;;;;;;5069976;28;20019;-58
2021/10/15 05:13:10;;;;;;;12.80;10.55;;;;;;;;;;5072417;28;20028;-58
2021/10/15 05:15:35;;;;;;;10.90;9.10;;;;;;;;;;5071372;28;20082;-58
2021/10/15 05:18:00;;;;;;;10.43;9.20;;;;;;;;;;5072012;28;20020;-58
2021/10/15 05:20:25;;;;;;;10.30;8.98;;;;;;;;;;5072155;28;20031;-57
2021/10/15 05:22:51;;;;;;;9.68;8.63;;;;;;;;;;5071160;28;20032;-58
2021/10/15 05:25:16;;;;;;;9.88;8.88;;;;;;;;;;5070996;28;20202;-58
2021/10/15 05:27:41;;;;;;;5.88;5.03;;;;;;;;;;5068381;28;20045;-59
2021/10/15 05:30:07;;;;;;;9.25;8.23;;;;;;;;;;5069994;28;20032;-60
2021/10/15 05:32:33;;;;;;;8.07;7.28;;;;;;;;;;5072090;28;20111;-59
2021/10/15 05:34:58;;;;;;;9.60;7.30;;;;;;;;;;5071186;28;20116;-59
2021/10/15 05:37:23;;;;;;;10.75;7.68;;;;;;;;;;5072961;28;20036;-60
2021/10/15 05:39:49;;;;;;;8.35;7.63;;;;;;;;;;5066623;28;20052;-58
2021/10/15 05:42:14;;;;;;;7.80;7.00;;;;;;;;;;5068297;28;20032;-58
2021/10/15 05:44:39;;;;;;;8.25;6.55;;;;;;;;;;5071553;28;20041;-60
2021/10/15 05:47:04;;;;;;;7.30;6.60;;;;;;;;;;5070083;28;20024;-59
2021/10/15 05:49:34;;;;;;;6.57;5.95;;;;;;;;;;5070777;28;20032;-58
2021/10/15 05:52:15;;;;;;;9.77;6.43;;;;;;;;;;5069362;28;20050;-59
2021/10/15 05:59:40;;;;;;;7.03;5.30;;;;;;;;;;5065254;28;20117;-60
2021/10/15 06:02:06;;;;;;;5.93;5.32;;;;;;;;;;5063850;28;20116;-59
2021/10/15 06:15:29;;;;;;;3.55;3.25;;;;;;;;;;5071338;28;20077;-59
2021/10/15 06:17:55;;;;;;;5.07;3.03;;;;;;;;;;5074436;28;20028;-54
2021/10/15 06:20:20;;;;;;;3.50;3.20;;;;;;;;;;5053017;28;20044;-59
2021/10/15 06:22:46;;;;;;;3.50;3.20;;;;;;;;;;5055127;28;21620;-59
2021/10/15 06:25:11;;;;;;;3.22;2.58;;;;;;;;;;5060752;28;20073;-58
2021/10/15 06:27:36;;;;;;;4.53;3.85;;;;;;;;;;5062387;28;20032;-58
2021/10/15 06:30:02;;;;;;;3.38;3.00;;;;;;;;;;5063595;28;20031;-57
2021/10/15 06:32:27;;;;;;;1.75;1.52;;;;;;;;;;5066491;28;20128;-58
2021/10/15 06:34:53;;;;;;;2.05;1.60;;;;;;;;;;5063569;28;20440;-59
2021/10/15 06:37:18;;;;;;;2.42;2.20;;;;;;;;;;5065589;28;20111;-56
2021/10/15 06:39:43;;;;;;;4.50;2.67;;;;;;;;;;5067054;28;20147;-57
2021/10/15 06:42:08;;;;;;;3.67;1.98;;;;;;;;;;5069984;28;20040;-59
2021/10/15 06:44:34;;;;;;;2.53;2.33;;;;;;;;;;5072853;28;20062;-58
2021/10/15 06:46:59;;;;;;;3.67;2.28;;;;;;;;;;5067389;28;20588;-58
2021/10/15 06:49:24;;;;;;;2.22;1.45;;;;;;;;;;5068864;28;20031;-59
2021/10/15 06:51:49;;;;;;;4.35;2.75;;;;;;;;;;5066310;28;20036;-58
2021/10/15 06:54:15;;;;;;;2.05;1.40;;;;;;;;;;5067941;28;20028;-58
2021/10/15 06:56:40;;;;;;;2.90;2.30;;;;;;;;;;5064552;28;20020;-55
2021/10/15 06:59:05;;;;;;;5.13;2.70;;;;;;;;;;5069074;28;20540;-58
2021/10/15 07:01:31;;;;;;;4.68;3.17;;;;;;;;;;5068146;28;20128;-57
2021/10/15 07:03:57;;;;;;;4.07;2.70;;;;;;;;;;5071860;28;20081;-58
2021/10/15 07:06:23;;;;;;;3.33;2.25;;;;;;;;;;5070563;28;20032;-59
2021/10/15 07:08:48;;;;;;;3.40;2.47;;;;;;;;;;5070315;28;20037;-58
2021/10/15 07:11:13;;;;;;;7.07;3.33;;;;;;;;;;5069358;28;20485;-58
2021/10/15 07:13:39;;;;;;;4.22;2.85;;;;;;;;;;5069099;28;20029;-59
2021/10/15 07:16:04;;;;;;;2.92;1.90;;;;;;;;;;5068873;28;20021;-58
2021/10/15 07:18:29;;;;;;;3.65;1.80;;;;;;;;;;5066067;28;20154;-58
2021/10/15 07:20:54;;;;;;;2.75;2.50;;;;;;;;;;5066665;28;20013;-58
2021/10/15 07:23:19;;;;;;;9.15;3.33;;;;;;;;;;5067828;28;20032;-58
2021/10/15 07:25:45;;;;;;;2.92;2.60;;;;;;;;;;5064939;28;20045;-57
2021/10/15 07:28:11;;;;;;;2.45;2.03;;;;;;;;;;5070488;28;20036;-58
2021/10/15 07:30:36;;;;;;;3.33;2.30;;;;;;;;;;5074298;28;20052;-59
2021/10/15 07:33:01;;;;;;;3.25;1.70;;;;;;;;;;5070987;28;20137;-58
2021/10/15 07:35:26;;;;;;;3.30;2.30;;;;;;;;;;5065793;28;20016;-58
2021/10/15 07:37:51;;;;;;;4.25;2.55;;;;;;;;;;5070513;28;20029;-58
2021/10/15 07:40:17;;;;;;;3.67;3.03;;;;;;;;;;5073576;28;20097;-59
2021/10/15 07:42:42;;;;;;;4.47;3.53;;;;;;;;;;5070912;28;20472;-58
2021/10/15 07:45:07;;;;;;;3.08;2.78;;;;;;;;;;5071301;28;20024;-56
2021/10/15 07:47:33;;;;;;;4.18;3.00;;;;;;;;;;5073244;28;20040;-57
2021/10/15 07:49:58;;;;;;;3.33;2.85;;;;;;;;;;5072821;28;20104;-58
2021/10/15 07:52:23;;;;;;;3.90;2.50;;;;;;;;;;5075287;28;20024;-59
2021/10/15 07:54:49;;;;;;;5.65;3.10;;;;;;;;;;5074731;28;20040;-59
2021/10/15 07:57:14;;;;;;;5.10;3.63;;;;;;;;;;5068253;28;20023;-58
2021/10/15 07:59:40;;;;;;;3.35;3.05;;;;;;;;;;5075107;28;20033;-61
2021/10/15 08:02:05;;;;;;;4.90;2.65;;;;;;;;;;5073761;28;20580;-60
2021/10/15 08:04:30;;;;;;;4.93;3.05;;;;;;;;;;5073544;28;20028;-60
2021/10/15 08:06:56;;;;;;;3.47;2.67;;;;;;;;;;5074389;28;20530;-62
2021/10/15 08:09:21;;;;;;;4.13;3.42;;;;;;;;;;5073387;28;20032;-60
2021/10/15 08:11:47;;;;;;;3.53;3.22;;;;;;;;;;5075215;28;20472;-60
2021/10/15 08:14:12;;;;;;;1.52;1.25;;;;;;;;;;5075725;28;20493;-60
2021/10/15 08:16:37;;;;;;;2.63;0.77;;;;;;;;;;5074841;28;20166;-59
2021/10/15 08:19:02;;;;;;;4.50;2.42;;;;;;;;;;5073027;28;20050;-59
2021/10/15 08:21:27;;;;;;;4.35;2.67;;;;;;;;;;5071944;28;20032;-62
2021/10/15 08:23:53;;;;;;;3.05;2.10;;;;;;;;;;5073914;28;20095;-60
2021/10/15 08:26:18;;;;;;;2.42;2.20;;;;;;;;;;5067037;28;20055;-62
2021/10/15 08:28:45;;;;;;;2.83;2.15;;;;;;;;;;5067513;28;20021;-60
2021/10/15 08:31:10;;;;;;;3.63;1.80;;;;;;;;;;5072705;28;20024;-62
2021/10/15 08:33:35;;;;;;;3.78;2.42;;;;;;;;;;5078475;28;20392;-60
2021/10/15 08:36:01;;;;;;;3.50;2.60;;;;;;;;;;5074416;28;20111;-60
2021/10/15 08:38:26;;;;;;;2.83;1.73;;;;;;;;;;5073938;28;20388;-61
2021/10/15 08:40:51;;;;;;;2.47;1.52;;;;;;;;;;5073708;28;20058;-56
2021/10/15 08:43:16;;;;;;;1.67;1.52;;;;;;;;;;5072780;28;20031;-62
2021/10/15 08:45:42;;;;;;;1.50;1.40;;;;;;;;;;5073164;28;20103;-60
2021/10/15 08:48:07;;;;;;;2.05;1.38;;;;;;;;;;5073479;28;20024;-61
2021/10/15 08:50:33;;;;;;;2.55;1.98;;;;;;;;;;5072303;28;20035;-61
2021/10/15 08:52:59;;;;;;;3.08;1.90;;;;;;;;;;5074734;28;20067;-61
2021/10/15 08:55:24;;;;;;;1.83;1.00;;;;;;;;;;5069931;28;20025;-60
2021/10/15 08:57:50;;;;;;;2.30;1.50;;;;;;;;;;5071877;28;20109;-61
2021/10/15 09:00:21;;;;;;;1.17;0.98;;;;;;;;;;5074555;28;20095;-59
2021/10/15 09:02:48;;;;;;;2.42;1.60;;;;;;;;;;5073581;28;20052;-60
2021/10/15 09:05:14;;;;;;;1.60;1.50;;;;;;;;;;5072049;28;20071;-60
2021/10/15 09:07:52;;;;;;;2.47;1.42;;;;;;;;;;5073047;28;20476;-60
2021/10/15 09:10:19;;;;;;;1.92;1.83;;;;;;;;;;5073778;28;20446;-58
2021/10/15 09:12:46;;;;;;;1.30;1.15;;;;;;;;;;5072773;28;20028;-58
2021/10/15 09:15:12;;;;;;;1.30;1.20;;;;;;;;;;5074168;28;20028;-51
2021/10/15 09:17:48;;;;;;;2.05;1.00;;;;;;;;;;5077034;28;20027;-62
2021/10/15 09:20:24;;;;;;;2.05;1.10;;;;;;;;;;5070057;28;20016;-62
2021/10/15 09:22:49;;;;;;;1.35;1.08;;;;;;;;;;5065593;28;20099;-61
2021/10/15 09:25:15;;;;;;;0.75;0.43;;;;;;;;;;5070814;28;20419;-62
2021/10/15 09:27:45;;;;;;;1.60;1.10;;;;;;;;;;5069838;28;20034;-61
2021/10/15 09:30:13;;;;;;;2.25;1.10;;;;;;;;;;5070736;28;20028;-61
2021/10/15 09:32:44;;;;;;;0.77;0.50;;;;;;;;;;5070710;28;20380;-63
2021/10/15 09:35:10;;;;;;;1.63;0.90;;;;;;;;;;5070953;28;20263;-63
2021/10/15 09:37:37;;;;;;;2.35;0.63;;;;;;;;;;5072736;28;20033;-63
2021/10/15 09:40:11;;;;;;;1.90;1.20;;;;;;;;;;5071887;28;20047;-61
2021/10/15 09:42:40;;;;;;;0.73;0.40;;;;;;;;;;5073538;28;20028;-61
2021/10/15 09:45:12;;;;;;;2.60;0.93;;;;;;;;;;5071773;28;20029;-61
2021/10/15 09:47:38;;;;;;;1.27;0.75;;;;;;;;;;5073086;28;20039;-61
2021/10/15 09:50:05;;;;;;;1.52;0.93;;;;;;;;;;5071595;28;20096;-61
2021/10/15 09:52:36;;;;;;;2.10;0.93;;;;;;;;;;5071057;28;20465;-61
2021/10/15 09:55:03;;;;;;;1.10;0.40;;;;;;;;;;5070560;28;20027;-59
2021/10/15 09:57:33;;;;;;;1.27;0.47;;;;;;;;;;5071792;28;20052;-59
2021/10/15 09:59:58;;;;;;;0.20;0.20;;;;;;;;;;5072036;28;20023;-62
2021/10/15 10:02:23;;;;;;;0.40;0.40;;;;;;;;;;5070560;28;20016;-62
2021/10/15 10:04:53;;;;;;;1.80;0.77;;;;;;;;;;5071119;28;20016;-62
2021/10/15 10:07:18;;;;;;;2.10;0.40;;;;;;;;;;5071323;28;20111;-59
2021/10/15 10:09:44;;;;;;;0.88;0.70;;;;;;;;;;5070881;28;20107;-61
2021/10/15 10:12:10;;;;;;;1.10;0.63;;;;;;;;;;5071374;28;20032;-62
2021/10/15 10:14:36;;;;;;;0.50;0.30;;;;;;;;;;5069408;28;20032;-61
2021/10/15 10:17:01;;;;;;;0.70;0.43;;;;;;;;;;5071500;28;20361;-62
2021/10/15 10:19:28;;;;;;;1.73;0.40;;;;;;;;;;5071119;28;20077;-61
2021/10/15 10:21:53;;;;;;;0.80;0.30;;;;;;;;;;5071909;28;20115;-63
2021/10/15 10:24:26;;;;;;;0.45;0.28;;;;;;;;;;5071279;28;20108;-62
2021/10/15 10:26:52;;;;;;;0.75;0.30;;;;;;;;;;5066134;28;20523;-59
2021/10/15 10:29:18;;;;;;;1.20;0.50;;;;;;;;;;5069408;28;20036;-60
2021/10/15 10:31:43;;;;;;;1.90;0.50;;;;;;;;;;5068791;28;20493;-62
2021/10/15 10:34:10;;;;;;;1.30;0.45;;;;;;;;;;5070340;28;20074;-63
2021/10/15 10:36:37;;;;;;;0.65;0.40;;;;;;;;;;5071888;28;20024;-62
2021/10/15 10:39:17;;;;;;;0.73;0.40;;;;;;;;;;5071591;28;20070;-61
2021/10/15 10:42:00;;;;;;;1.70;0.43;;;;;;;;;;5071527;28;20020;-61
2021/10/15 10:44:25;;;;;;;1.88;0.40;;;;;;;;;;5070789;28;20066;-63
2021/10/15 10:47:05;;;;;;;0.50;0.30;;;;;;;;;;5071773;28;20105;-62
2021/10/15 10:49:31;;;;;;;0.65;0.30;;;;;;;;;;5069402;28;20588;-62
2021/10/15 10:52:07;;;;;;;0.93;0.47;;;;;;;;;;5070995;28;20020;-63
2021/10/15 10:54:32;;;;;;;0.50;0.30;;;;;;;;;;5071391;28;20082;-60
2021/10/15 10:57:11;;;;;;;0.43;0.30;;;;;;;;;;5061083;28;20480;-61
2021/10/15 10:59:36;;;;;;;0.73;0.32;;;;;;;;;;5069160;28;20126;-62
2021/10/15 11:02:10;;;;;;;1.53;0.40;;;;;;;;;;5076059;28;20416;-56
2021/10/15 11:04:48;;;;;;;0.85;0.40;;;;;;;;;;5070354;28;20267;-61
2021/10/15 11:07:16;;;;;;;0.65;0.30;;;;;;;;;;5071553;28;20479;-60
2021/10/15 11:09:49;;;;;;;1.33;0.57;;;;;;;;;;5070981;28;20024;-59
2021/10/15 11:12:34;;;;;;;0.65;0.40;;;;;;;;;;5071357;28;20077;-62
2021/10/15 11:15:10;;;;;;;1.15;0.40;;;;;;;;;;5061804;28;20036;-63
2021/10/15 11:17:37;;;;;;;0.85;0.40;;;;;;;;;;5069675;28;20025;-63
2021/10/15 11:20:21;;;;;;;1.88;0.20;;;;;;;;;;5070758;28;20082;-62
2021/10/15 11:22:51;;;;;;;0.80;0.38;;;;;;;;;;5075013;28;20081;-62
2021/10/15 11:25:17;;;;;;;0.50;0.30;;;;;;;;;;5073948;28;20056;-62
2021/10/15 11:27:42;;;;;;;0.88;0.32;;;;;;;;;;5073987;28;20040;-62
2021/10/15 11:30:09;;;;;;;1.20;0.30;;;;;;;;;;5075254;28;20036;-62
2021/10/15 11:32:44;;;;;;;1.02;0.30;;;;;;;;;;5075297;28;20048;-61
2021/10/15 11:35:10;;;;;;;0.75;0.47;;;;;;;;;;5074415;28;20044;-61
2021/10/15 11:37:44;;;;;;;2.75;0.57;;;;;;;;;;5075500;28;20109;-61
2021/10/15 11:40:17;;;;;;;1.25;0.60;;;;;;;;;;5073801;28;20103;-61
2021/10/15 11:42:43;;;;;;;0.50;0.30;;;;;;;;;;5071643;28;20554;-61
2021/10/15 11:45:24;;;;;;;0.80;0.47;;;;;;;;;;5072702;28;20052;-62
2021/10/15 11:47:59;;;;;;;1.05;0.40;;;;;;;;;;5073550;28;20248;-62
2021/10/15 11:50:32;;;;;;;0.73;0.50;;;;;;;;;;5064707;28;20025;-60
2021/10/15 11:52:57;;;;;;;1.73;0.70;;;;;;;;;;5073037;28;20016;-60
2021/10/15 11:55:27;;;;;;;0.70;0.50;;;;;;;;;;5070392;28;20128;-60
2021/10/15 11:58:13;;;;;;;1.92;1.05;;;;;;;;;;5073052;28;20035;-60
2021/10/15 12:00:51;;;;;;;0.80;0.70;;;;;;;;;;5074259;28;20037;-62
2021/10/15 12:03:35;;;;;;;1.35;1.00;;;;;;;;;;5074104;28;20117;-61
2021/10/15 12:06:23;;;;;;;2.35;0.95;;;;;;;;;;5074080;28;20028;-60
2021/10/15 12:08:49;;;;;;;1.77;1.23;;;;;;;;;;5071784;28;20063;-60
2021/10/15 12:11:16;;;;;;;1.35;0.90;;;;;;;;;;5071870;28;20473;-60
2021/10/15 12:13:42;;;;;;;2.47;1.50;;;;;;;;;;5066435;28;20469;-63
2021/10/15 12:16:17;;;;;;;2.15;1.40;;;;;;;;;;5074216;28;20023;-60
2021/10/15 12:18:42;;;;;;;;;;;;;;;;;;5074429;28;20044;-60
2021/10/15 12:21:08;;;;;;;0.95;0.73;;;;;;;;;;5074136;28;19952;-60
2021/10/15 12:23:48;;;;;;;3.45;1.60;;;;;;;;;;5073225;28;20036;-62
2021/10/15 12:26:21;;;;;;;3.45;2.03;;;;;;;;;;5069055;28;20052;-61
2021/10/15 12:28:46;;;;;;;2.45;2.03;;;;;;;;;;5073382;28;20066;-58
2021/10/15 12:31:24;;;;;;;2.38;2.17;;;;;;;;;;5072320;28;20025;-59
2021/10/15 12:34:08;;;;;;;2.60;1.88;;;;;;;;;;5071185;28;20017;-59
2021/10/15 12:36:34;;;;;;;2.58;2.00;;;;;;;;;;5071627;28;20020;-62
2021/10/15 12:39:15;;;;;;;1.75;1.38;;;;;;;;;;5074298;28;20029;-62
2021/10/15 12:41:40;;;;;;;3.92;1.40;;;;;;;;;;5072960;28;20078;-61
2021/10/15 12:44:18;;;;;;;2.13;1.40;;;;;;;;;;5072301;28;20489;-62
2021/10/15 12:46:52;;;;;;;1.83;1.52;;;;;;;;;;5073447;28;20446;-62
2021/10/15 12:49:17;;;;;;;2.47;0.82;;;;;;;;;;5073462;28;20560;-61
2021/10/15 12:51:43;;;;;;;2.47;1.35;;;;;;;;;;5073155;28;20107;-62
2021/10/15 12:54:08;;;;;;;2.10;1.30;;;;;;;;;;5067507;28;20036;-61
2021/10/15 12:56:34;;;;;;;2.70;1.23;;;;;;;;;;5064302;28;20036;-59
2021/10/15 12:59:00;;;;;;;2.67;0.85;;;;;;;;;;5072654;28;20508;-61
2021/10/15 13:01:32;;;;;;;0.85;0.85;;;;;;;;;;5072557;28;20025;-61
2021/10/15 13:03:58;;;;;;;4.82;2.05;;;;;;;;;;5072658;28;20020;-62
2021/10/15 13:06:24;;;;;;;2.08;1.50;;;;;;;;;;5073096;28;20048;-60
2021/10/15 13:08:50;;;;;;;2.30;1.30;;;;;;;;;;5072943;28;20044;-61
2021/10/15 13:11:18;;;;;;;1.45;0.50;;;;;;;;;;5071282;28;20112;-61
2021/10/15 13:13:43;;;;;;;2.28;1.00;;;;;;;;;;5072640;28;20023;-63
2021/10/15 13:16:08;;;;;;;1.75;0.85;;;;;;;;;;5070297;28;20017;-61
2021/10/15 13:18:33;;;;;;;2.28;1.27;;;;;;;;;;5072803;28;20031;-60
2021/10/15 13:20:59;;;;;;;0.77;0.55;;;;;;;;;;5072410;28;20062;-61
2021/10/15 13:23:24;;;;;;;2.10;1.17;;;;;;;;;;5072482;28;20028;-61
2021/10/15 13:25:49;;;;;;;2.40;1.30;;;;;;;;;;5067365;28;20044;-62
2021/10/15 13:28:14;;;;;;;2.47;1.63;;;;;;;;;;5071570;28;20059;-62
2021/10/15 13:30:40;;;;;;;5.47;1.30;;;;;;;;;;5071853;28;20112;-52
2021/10/15 13:33:05;;;;;;;1.52;1.00;;;;;;;;;;5071227;28;20021;-53
2021/10/15 13:35:30;;;;;;;1.38;1.27;;;;;;;;;;5061228;28;20070;-55
2021/10/15 13:38:05;;;;;;;5.22;2.17;;;;;;;;;;5070397;28;20020;-56
2021/10/15 13:40:34;;;;;;;1.77;1.67;;;;;;;;;;5073408;28;20039;-55
2021/10/15 13:50:55;;;;;;;2.45;2.05;;;;;;;;;;5072643;28;20128;-56
2021/10/15 13:53:20;;;;;;;2.75;2.03;;;;;;;;;;5068530;28;20096;-56
2021/10/15 13:58:20;;;;;;;4.25;2.38;;;;;;;;;;5081913;28;20357;-59
2021/10/15 14:00:47;;;;;;;1.55;1.25;;;;;;;;;;5076414;28;20412;-59
2021/10/15 14:05:56;;;;;;;1.40;1.15;;;;;;;;;;5080718;28;20039;-58
2021/10/15 14:08:21;;;;;;;4.32;1.83;;;;;;;;;;5069900;28;20040;-60
2021/10/15 14:10:47;;;;;;;3.38;2.28;;;;;;;;;;5071913;28;20024;-58
2021/10/15 14:13:12;;;;;;;3.78;2.17;;;;;;;;;;5071624;28;20028;-56
2021/10/15 14:15:37;;;;;;;2.45;1.85;;;;;;;;;;5069219;28;20115;-57
2021/10/15 14:18:02;;;;;;;2.58;1.73;;;;;;;;;;5072254;28;20100;-58
2021/10/15 14:20:28;;;;;;;4.43;3.00;;;;;;;;;;5071644;28;20090;-59
2021/10/15 14:22:54;;;;;;;1.98;1.77;;;;;;;;;;5071575;28;20024;-60
2021/10/15 14:25:19;;;;;;;4.13;1.50;;;;;;;;;;5067486;28;22061;-58
2021/10/15 14:27:44;;;;;;;2.60;2.05;;;;;;;;;;5069492;28;20082;-58
2021/10/15 14:30:12;;;;;;;3.45;3.15;;;;;;;;;;5071304;28;20128;-58
2021/10/15 14:32:37;;;;;;;3.53;3.00;;;;;;;;;;5071705;28;20493;-59
2021/10/15 14:35:04;;;;;;;4.93;2.35;;;;;;;;;;5070886;28;20082;-60
2021/10/15 14:37:29;;;;;;;2.78;2.58;;;;;;;;;;5071534;28;20031;-58
2021/10/15 14:39:54;;;;;;;3.15;1.80;;;;;;;;;;5071089;28;20024;-59
2021/10/15 14:42:19;;;;;;;1.83;1.73;;;;;;;;;;5071328;28;20378;-60
2021/10/15 14:44:45;;;;;;;3.00;2.20;;;;;;;;;;5071202;28;20025;-59
2021/10/15 14:47:10;;;;;;;4.18;2.97;;;;;;;;;;5071677;28;20119;-59
2021/10/15 14:49:35;;;;;;;2.65;1.55;;;;;;;;;;5071251;28;20480;-58
2021/10/15 14:52:00;;;;;;;2.20;1.23;;;;;;;;;;5070925;28;20052;-59
2021/10/15 14:54:25;;;;;;;2.50;1.52;;;;;;;;;;5071416;28;20055;-60
2021/10/15 14:56:51;;;;;;;2.33;1.95;;;;;;;;;;5064223;28;20066;-58
2021/10/15 14:59:16;;;;;;;3.25;2.95;;;;;;;;;;5087116;28;20032;-59
2021/10/15 15:01:41;;;;;;;3.88;3.33;;;;;;;;;;5069926;28;20400;-59
2021/10/15 15:04:06;;;;;;;7.55;6.82;;;;;;;;;;5069225;28;20028;-59